Time;durP1;ratioP1;P1;durP2;ratioP2;P2;SDS_P1;SDS_P2;PMS_P1;PMS_P2;Temp;Humidity;BMP_temperature;BMP_pressure;BME280_temperature;BME280_humidity;BME280_pressure;Samples;Min_cycle;Max_cycle;Signal;HPM_P1;HPM_P2
2021/07/10 00:01:55;;;;;;;;;;;;;;;22.65;94.39;100259.35;1712426;82;21893;-79
2021/07/10 00:04:21;;;;;;;;;;;;;;;22.58;94.88;100253.55;1709910;82;20114;-80
2021/07/10 00:06:47;;;;;;;;;;;;;;;22.64;94.23;100244.24;1698270;82;20155;-78
2021/07/10 00:09:13;;;;;;;;;;;;;;;22.64;94.20;100245.59;1717112;82;20185;-79
2021/07/10 00:11:38;;;;;;;;;;;;;;;22.67;94.26;100245.13;1699028;82;20324;-79
2021/07/10 00:14:04;;;;;;;;;;;;;;;22.71;94.20;100230.16;1709931;83;21035;-79
2021/07/10 00:16:29;;;;;;;;;;;;;;;22.73;94.06;100225.34;1717712;82;20506;-78
2021/07/10 00:18:55;;;;;;;;;;;;;;;22.74;94.15;100222.95;1701902;82;20150;-78
2021/07/10 00:21:20;;;;;;;;;;;;;;;22.72;94.35;100226.41;1705847;82;20444;-78
2021/07/10 00:23:46;;;;;;;;;;;;;;;22.81;94.38;100226.86;1715652;82;20166;-78
2021/07/10 00:26:12;;;;;;;;;;;;;;;22.75;94.29;100213.83;1712260;82;21126;-77
2021/07/10 00:28:37;;;;;;;;;;;;;;;22.73;94.57;100203.80;1719552;83;20181;-78
2021/07/10 00:31:03;;;;;;;;;;;;;;;22.68;94.97;100199.66;1712475;82;20170;-78
2021/07/10 00:33:28;;;;;;;;;;;;;;;22.71;95.24;100210.77;1714998;82;20484;-78
2021/07/10 00:35:54;;;;;;;;;;;;;;;22.74;95.52;100204.11;1714921;82;20147;-78
2021/07/10 00:38:20;;;;;;;;;;;;;;;22.75;95.30;100211.14;1712289;82;21661;-79
2021/07/10 00:40:45;;;;;;;;;;;;;;;22.77;95.10;100204.98;1719726;82;20846;-79
2021/07/10 00:43:11;;;;;;;;;;;;;;;22.84;94.53;100188.19;1708632;82;20147;-78
2021/07/10 00:45:36;;;;;;;;;;;;;;;22.79;94.13;100175.94;1691741;83;20183;-78
2021/07/10 00:48:02;;;;;;;;;;;;;;;22.74;94.97;100171.80;1709394;82;20460;-78
2021/07/10 00:50:28;;;;;;;;;;;;;;;22.75;95.01;100172.10;1715449;82;22345;-79
2021/07/10 00:52:53;;;;;;;;;;;;;;;22.71;95.44;100176.31;1720827;82;20197;-78
2021/07/10 00:55:19;;;;;;;;;;;;;;;22.73;95.51;100182.27;1718876;82;20161;-78
2021/07/10 00:57:45;;;;;;;;;;;;;;;22.52;95.28;100175.09;1718168;82;20149;-78
2021/07/10 01:00:12;;;;;;;;;;;;;;;22.43;96.50;100176.50;1719431;82;20475;-79
2021/07/10 01:02:40;;;;;;;;;;;;;;;22.38;97.52;100175.05;1711189;82;21065;-79
2021/07/10 01:05:07;;;;;;;;;;;;;;;22.42;96.69;100162.77;1701194;82;20559;-80
2021/07/10 01:07:33;;;;;;;;;;;;;;;22.35;96.18;100156.14;1693553;83;20455;-79
2021/07/10 01:09:58;;;;;;;;;;;;;;;22.19;96.74;100161.66;1705887;82;20162;-79
2021/07/10 01:12:26;;;;;;;;;;;;;;;22.14;97.37;100176.85;1717017;82;20174;-80
2021/07/10 01:14:52;;;;;;;;;;;;;;;22.02;97.64;100173.63;1708059;82;21107;-79
2021/07/10 01:17:17;;;;;;;;;;;;;;;21.94;98.80;100167.76;1672539;82;20126;-77
2021/07/10 01:19:43;;;;;;;;;;;;;;;21.99;98.79;100167.91;1695151;82;20166;-79
2021/07/10 01:22:09;;;;;;;;;;;;;;;22.03;98.35;100163.68;1684339;83;21787;-79
2021/07/10 01:24:34;;;;;;;;;;;;;;;22.00;98.43;100151.53;1718689;82;20989;-78
2021/07/10 01:27:00;;;;;;;;;;;;;;;21.97;98.50;100145.28;1719720;82;21090;-79
2021/07/10 01:29:25;;;;;;;;;;;;;;;21.92;98.47;100141.64;1711561;82;20614;-79
2021/07/10 01:31:53;;;;;;;;;;;;;;;21.90;98.60;100135.68;1718997;82;20142;-78
2021/07/10 01:34:18;;;;;;;;;;;;;;;21.93;98.47;100133.34;1708221;82;20131;-79
2021/07/10 01:36:44;;;;;;;;;;;;;;;21.98;98.73;100138.02;1710795;82;20142;-79
2021/07/10 01:39:09;;;;;;;;;;;;;;;21.96;98.53;100137.44;1708059;82;22547;-79
2021/07/10 01:41:42;;;;;;;;;;;;;;;21.90;98.66;100126.27;1709384;83;20128;-79
2021/07/10 01:44:08;;;;;;;;;;;;;;;21.81;98.97;100121.23;1699215;82;20151;-79
2021/07/10 01:46:33;;;;;;;;;;;;;;;21.91;99.00;100129.23;1696359;83;20581;-78
2021/07/10 01:48:59;;;;;;;;;;;;;;;21.89;98.75;100133.50;1713137;82;20132;-79
2021/07/10 01:51:25;;;;;;;;;;;;;;;21.81;98.35;100125.27;1715735;82;21167;-79
2021/07/10 01:53:50;;;;;;;;;;;;;;;21.80;98.19;100118.25;1721025;82;20142;-78
2021/07/10 01:56:16;;;;;;;;;;;;;;;21.80;98.80;100119.59;1717510;82;20146;-79
2021/07/10 01:58:42;;;;;;;;;;;;;;;21.77;98.99;100127.31;1705329;83;20162;-79
2021/07/10 02:01:07;;;;;;;;;;;;;;;21.75;99.08;100128.88;1712512;82;20174;-79
2021/07/10 02:03:33;;;;;;;;;;;;;;;21.72;99.35;100132.03;1705774;82;21163;-80
2021/07/10 02:05:59;;;;;;;;;;;;;;;21.65;99.71;100143.39;1697246;83;20153;-77
2021/07/10 02:08:24;;;;;;;;;;;;;;;21.67;99.97;100141.28;1716796;82;20193;-80
2021/07/10 02:10:50;;;;;;;;;;;;;;;21.69;99.94;100144.59;1720323;82;20758;-79
2021/07/10 02:13:15;;;;;;;;;;;;;;;21.80;99.65;100150.50;1719318;82;20173;-78
2021/07/10 02:15:41;;;;;;;;;;;;;;;21.72;99.65;100164.28;1715887;82;21255;-78
2021/07/10 02:18:07;;;;;;;;;;;;;;;21.75;99.64;100163.83;1701035;82;20154;-78
2021/07/10 02:20:32;;;;;;;;;;;;;;;21.78;99.37;100153.96;1705965;82;20128;-79
2021/07/10 02:22:58;;;;;;;;;;;;;;;21.78;99.59;100155.30;1704641;82;20503;-78
2021/07/10 02:25:24;;;;;;;;;;;;;;;21.79;99.93;100152.89;1700049;82;20127;-77
2021/07/10 02:27:51;;;;;;;;;;;;;;;21.92;99.34;100173.90;1712915;82;21891;-77
2021/07/10 02:30:19;;;;;;;;;;;;;;;21.81;99.33;100176.34;1703587;82;20095;-78
2021/07/10 02:32:45;;;;;;;;;;;;;;;21.94;99.03;100161.03;1702024;83;20167;-77
2021/07/10 02:35:11;;;;;;;;;;;;;;;21.97;98.72;100168.64;1715238;82;20351;-78
2021/07/10 02:37:37;;;;;;;;;;;;;;;21.85;98.83;100178.85;1707170;82;20722;-78
2021/07/10 02:40:05;;;;;;;;;;;;;;;21.77;99.55;100165.75;1722099;82;21047;-78
2021/07/10 02:42:30;;;;;;;;;;;;;;;21.75;100.00;100174.58;1717667;82;20139;-78
2021/07/10 02:44:56;;;;;;;;;;;;;;;21.83;99.65;100183.65;1704434;83;20131;-79
2021/07/10 02:47:21;;;;;;;;;;;;;;;21.76;99.71;100178.88;1708541;82;20213;-79
2021/07/10 02:49:47;;;;;;;;;;;;;;;21.78;99.60;100175.97;1714301;82;20154;-79
2021/07/10 02:52:13;;;;;;;;;;;;;;;21.77;99.70;100170.31;1711761;82;22006;-79
2021/07/10 02:54:38;;;;;;;;;;;;;;;21.81;99.56;100160.22;1712880;82;20115;-78
2021/07/10 02:57:04;;;;;;;;;;;;;;;21.66;100.00;100161.17;1717827;82;20609;-81
2021/07/10 02:59:29;;;;;;;;;;;;;;;21.71;100.00;100163.98;1720232;82;20447;-80
2021/07/10 03:01:55;;;;;;;;;;;;;;;21.81;99.29;100173.66;1716399;82;20209;-79
2021/07/10 03:04:21;;;;;;;;;;;;;;;21.69;99.95;100172.27;1703662;82;21112;-79
2021/07/10 03:06:46;;;;;;;;;;;;;;;21.67;100.00;100168.16;1712461;83;20167;-80
2021/07/10 03:09:12;;;;;;;;;;;;;;;21.68;100.00;100167.13;1707280;82;20138;-78
2021/07/10 03:11:37;;;;;;;;;;;;;;;21.60;100.00;100163.42;1705766;82;20122;-79
2021/07/10 03:14:03;;;;;;;;;;;;;;;21.70;100.00;100160.98;1713417;82;20131;-79
2021/07/10 03:16:28;;;;;;;;;;;;;;;21.68;100.00;100169.81;1705940;82;21972;-78
2021/07/10 03:18:54;;;;;;;;;;;;;;;21.63;99.80;100171.03;1675351;82;20157;-78
2021/07/10 03:21:19;;;;;;;;;;;;;;;21.49;100.00;100174.43;1717078;82;20158;-78
2021/07/10 03:23:45;;;;;;;;;;;;;;;21.53;100.00;100194.94;1712943;82;20095;-78
2021/07/10 03:26:11;;;;;;;;;;;;;;;21.60;100.00;100209.11;1713366;82;20198;-78
2021/07/10 03:28:37;;;;;;;;;;;;;;;21.64;100.00;100211.62;1697417;82;21177;-77
2021/07/10 03:31:02;;;;;;;;;;;;;;;21.64;100.00;100212.97;1712541;82;20166;-77
2021/07/10 03:33:28;;;;;;;;;;;;;;;21.66;100.00;100202.83;1717568;82;20558;-77
2021/07/10 03:35:53;;;;;;;;;;;;;;;21.75;100.00;100209.52;1717766;82;20320;-77
2021/07/10 03:38:19;;;;;;;;;;;;;;;21.73;100.00;100210.25;1707837;82;20477;-79
2021/07/10 03:40:44;;;;;;;;;;;;;;;21.75;100.00;100213.55;1718432;83;20991;-79
2021/07/10 03:43:10;;;;;;;;;;;;;;;21.73;100.00;100206.22;1703461;82;20235;-79
2021/07/10 03:45:35;;;;;;;;;;;;;;;21.75;100.00;100206.83;1697022;82;20146;-78
2021/07/10 03:48:01;;;;;;;;;;;;;;;21.73;100.00;100208.10;1712673;82;20461;-78
2021/07/10 03:50:27;;;;;;;;;;;;;;;21.77;100.00;100208.76;1705124;82;20123;-77
2021/07/10 03:52:53;;;;;;;;;;;;;;;21.77;100.00;100214.14;1691724;83;21120;-78
2021/07/10 03:55:18;;;;;;;;;;;;;;;21.83;100.00;100209.19;1702649;83;20126;-78
2021/07/10 03:57:44;;;;;;;;;;;;;;;21.94;100.00;100220.19;1721183;83;20629;-78
2021/07/10 04:00:13;;;;;;;;;;;;;;;21.94;100.00;100214.81;1710385;82;20553;-78
2021/07/10 04:02:38;;;;;;;;;;;;;;;21.93;100.00;100214.53;1710619;82;20242;-79
2021/07/10 04:05:05;;;;;;;;;;;;;;;21.81;100.00;100211.30;1717415;82;22430;-78
2021/07/10 04:07:32;;;;;;;;;;;;;;;21.70;100.00;100209.37;1709512;82;20238;-79
2021/07/10 04:10:00;;;;;;;;;;;;;;;21.56;100.00;100209.27;1717000;82;20198;-78
2021/07/10 04:12:26;;;;;;;;;;;;;;;21.63;100.00;100175.06;1709910;82;20151;-78
2021/07/10 04:14:51;;;;;;;;;;;;;;;21.69;100.00;100201.03;1706843;82;20218;-78
2021/07/10 04:17:17;;;;;;;;;;;;;;;21.74;100.00;100238.78;1717736;82;21131;-78
2021/07/10 04:19:43;;;;;;;;;;;;;;;21.73;100.00;100247.88;1708719;82;20170;-78
2021/07/10 04:22:11;;;;;;;;;;;;;;;21.82;100.00;100229.05;1712103;83;20126;-78
2021/07/10 04:24:36;;;;;;;;;;;;;;;21.93;100.00;100219.38;1717293;82;20457;-78
2021/07/10 04:27:02;;;;;;;;;;;;;;;22.00;99.98;100220.61;1715174;82;20115;-78
2021/07/10 04:29:28;;;;;;;;;;;;;;;21.97;100.00;100230.48;1720202;83;21001;-78
2021/07/10 04:31:53;;;;;;;;;;;;;;;21.71;100.00;100237.08;1721586;82;20143;-78
2021/07/10 04:34:19;;;;;;;;;;;;;;;21.74;100.00;100242.81;1720110;82;20150;-79
2021/07/10 04:36:44;;;;;;;;;;;;;;;21.81;100.00;100249.44;1717999;82;20476;-79
2021/07/10 04:39:11;;;;;;;;;;;;;;;21.71;100.00;100248.64;1706196;82;20201;-78
2021/07/10 04:41:37;;;;;;;;;;;;;;;21.59;100.00;100241.86;1715512;82;21274;-78
2021/07/10 04:44:03;;;;;;;;;;;;;;;21.64;100.00;100237.16;1698012;83;20153;-79
2021/07/10 04:46:29;;;;;;;;;;;;;;;21.77;100.00;100235.64;1713058;82;20118;-79
2021/07/10 04:48:55;;;;;;;;;;;;;;;21.81;100.00;100240.87;1716452;82;20731;-78
2021/07/10 04:51:20;;;;;;;;;;;;;;;21.93;100.00;100234.70;1702969;82;20130;-79
2021/07/10 04:53:50;;;;;;;;;;;;;;;21.82;100.00;100232.27;1709671;82;21195;-80
2021/07/10 04:56:13;;;;;;;;;;;;;;;21.86;100.00;100242.34;1703776;83;20118;-78
2021/07/10 04:58:43;;;;;;;;;;;;;;;21.80;99.94;100233.84;1718001;82;20156;-78
2021/07/10 05:01:06;;;;;;;;;;;;;;;21.81;99.99;100234.15;1696246;83;20102;-78
2021/07/10 05:03:32;;;;;;;;;;;;;;;21.74;100.00;100226.69;1702899;82;20130;-79
2021/07/10 05:05:59;;;;;;;;;;;;;;;21.72;100.00;100218.05;1699186;82;21069;-79
2021/07/10 05:08:25;;;;;;;;;;;;;;;21.61;100.00;100219.63;1690705;83;20158;-78
2021/07/10 05:10:51;;;;;;;;;;;;;;;21.35;100.00;100219.42;1692823;83;20166;-79
2021/07/10 05:13:16;;;;;;;;;;;;;;;21.30;100.00;100218.75;1706485;82;20131;-79
2021/07/10 05:15:42;;;;;;;;;;;;;;;21.16;100.00;100222.12;1668711;83;20157;-78
2021/07/10 05:18:08;;;;;;;;;;;;;;;21.10;100.00;100221.67;1713417;82;21252;-79
2021/07/10 05:20:34;;;;;;;;;;;;;;;21.02;100.00;100230.03;1698181;82;20099;-79
2021/07/10 05:22:59;;;;;;;;;;;;;;;21.04;100.00;100231.16;1704234;82;20127;-79
2021/07/10 05:25:25;;;;;;;;;;;;;;;21.19;100.00;100232.10;1713415;82;20130;-79
2021/07/10 05:27:51;;;;;;;;;;;;;;;21.26;100.00;100224.80;1718687;82;20201;-80
2021/07/10 05:30:17;;;;;;;;;;;;;;;21.14;100.00;100221.50;1704353;83;20626;-79
2021/07/10 05:32:43;;;;;;;;;;;;;;;21.09;100.00;100230.76;1708591;82;20152;-79
2021/07/10 05:35:11;;;;;;;;;;;;;;;21.06;100.00;100224.49;1716189;82;20146;-79
2021/07/10 05:37:37;;;;;;;;;;;;;;;20.96;100.00;100225.02;1710824;82;20760;-79
2021/07/10 05:40:04;;;;;;;;;;;;;;;20.89;100.00;100216.20;1710218;83;20205;-79
2021/07/10 05:42:29;;;;;;;;;;;;;;;21.00;100.00;100213.30;1699504;83;21065;-79
2021/07/10 05:44:55;;;;;;;;;;;;;;;21.19;100.00;100213.30;1706927;82;20152;-79
2021/07/10 05:47:21;;;;;;;;;;;;;;;20.62;97.33;100234.42;1707468;82;20196;-78
2021/07/10 05:49:50;;;;;;;;;;;;;;;20.35;97.27;100254.73;1718874;83;20206;-79
2021/07/10 05:52:14;;;;;;;;;;;;;;;20.26;96.97;100264.93;1707922;82;21013;-80
2021/07/10 05:54:40;;;;;;;;;;;;;;;20.26;97.59;100268.14;1706170;82;21127;-79
2021/07/10 05:57:05;;;;;;;;;;;;;;;20.01;96.83;100282.31;1696669;83;20182;-79
2021/07/10 05:59:31;;;;;;;;;;;;;;;19.84;97.16;100279.81;1701538;82;20280;-79
2021/07/10 06:01:56;;;;;;;;;;;;;;;19.69;98.60;100291.61;1713815;82;20208;-79
2021/07/10 06:04:23;;;;;;;;;;;;;;;19.53;99.34;100271.48;1706300;82;20625;-79
2021/07/10 06:06:50;;;;;;;;;;;;;;;19.59;99.34;100268.45;1710183;82;21194;-78
2021/07/10 06:09:16;;;;;;;;;;;;;;;19.46;100.00;100264.51;1718938;82;20158;-79
2021/07/10 06:11:41;;;;;;;;;;;;;;;19.53;100.00;100269.34;1695931;83;20201;-80
2021/07/10 06:14:12;;;;;;;;;;;;;;;19.44;100.00;100267.92;1709603;82;20573;-79
2021/07/10 06:16:35;;;;;;;;;;;;;;;19.40;100.00;100265.36;1707330;82;20148;-79
2021/07/10 06:19:01;;;;;;;;;;;;;;;19.28;100.00;100252.62;1712617;82;22377;-78
2021/07/10 06:21:27;;;;;;;;;;;;;;;19.23;100.00;100263.13;1704198;82;20130;-78
2021/07/10 06:23:53;;;;;;;;;;;;;;;19.23;100.00;100275.17;1714423;83;20175;-78
2021/07/10 06:26:19;;;;;;;;;;;;;;;19.32;100.00;100277.93;1714181;82;20142;-78
2021/07/10 06:28:47;;;;;;;;;;;;;;;19.18;100.00;100285.17;1699257;82;20138;-79
2021/07/10 06:31:12;;;;;;;;;;;;;;;19.33;100.00;100283.60;1703957;82;20496;-79
2021/07/10 06:33:38;;;;;;;;;;;;;;;19.57;100.00;100292.49;1700649;83;20134;-78
2021/07/10 06:36:04;;;;;;;;;;;;;;;19.63;100.00;100290.30;1700490;82;20154;-78
2021/07/10 06:38:29;;;;;;;;;;;;;;;19.76;99.42;100285.39;1707397;82;20171;-78
2021/07/10 06:40:55;;;;;;;;;;;;;;;19.67;99.40;100296.37;1705585;82;20110;-78
2021/07/10 06:43:20;;;;;;;;;;;;;;;19.97;98.60;100301.20;1712321;82;21102;-78
2021/07/10 06:45:46;;;;;;;;;;;;;;;19.83;96.85;100291.59;1709703;82;20887;-78
2021/07/10 06:48:11;;;;;;;;;;;;;;;19.88;96.40;100299.80;1708054;82;20162;-78
2021/07/10 06:50:37;;;;;;;;;;;;;;;19.65;96.67;100305.11;1709396;83;20115;-79
2021/07/10 06:53:03;;;;;;;;;;;;;;;19.65;97.20;100293.05;1709658;82;20119;-79
2021/07/10 06:55:28;;;;;;;;;;;;;;;19.76;97.28;100293.44;1702515;83;21959;-79
2021/07/10 06:57:54;;;;;;;;;;;;;;;19.80;96.90;100298.71;1714739;82;20229;-79
2021/07/10 07:00:20;;;;;;;;;;;;;;;19.68;97.36;100302.01;1706995;82;20140;-79
2021/07/10 07:02:46;;;;;;;;;;;;;;;19.69;97.38;100309.02;1708748;82;20630;-79
2021/07/10 07:05:11;;;;;;;;;;;;;;;19.67;96.66;100313.78;1716759;82;20169;-79
2021/07/10 07:07:37;;;;;;;;;;;;;;;19.80;96.53;100309.44;1710541;82;22499;-80
2021/07/10 07:10:04;;;;;;;;;;;;;;;19.77;95.79;100312.53;1698331;82;20150;-77
2021/07/10 07:12:30;;;;;;;;;;;;;;;19.91;95.89;100311.44;1712251;82;20178;-78
2021/07/10 07:14:55;;;;;;;;;;;;;;;19.90;94.50;100317.81;1696433;83;20151;-78
2021/07/10 07:17:21;;;;;;;;;;;;;;;19.88;93.96;100310.52;1697839;82;20139;-79
2021/07/10 07:19:46;;;;;;;;;;;;;;;19.81;93.41;100315.92;1702983;82;21144;-78
2021/07/10 07:22:12;;;;;;;;;;;;;;;19.82;93.54;100310.03;1706814;82;20166;-79
2021/07/10 07:24:39;;;;;;;;;;;;;;;19.82;93.11;100301.47;1719107;82;20138;-80
2021/07/10 07:27:05;;;;;;;;;;;;;;;19.85;92.54;100321.66;1713145;82;20178;-79
2021/07/10 07:29:30;;;;;;;;;;;;;;;19.96;92.52;100322.33;1713557;82;20158;-78
2021/07/10 07:31:56;;;;;;;;;;;;;;;20.00;91.77;100319.53;1719330;82;21063;-79
2021/07/10 07:34:22;;;;;;;;;;;;;;;20.11;91.70;100335.98;1694117;82;20270;-80
2021/07/10 07:36:48;;;;;;;;;;;;;;;20.03;91.22;100341.08;1712282;82;20297;-80
2021/07/10 07:39:14;;;;;;;;;;;;;;;20.15;90.40;100334.50;1713377;82;20179;-79
2021/07/10 07:41:39;;;;;;;;;;;;;;;20.24;89.96;100329.19;1702950;82;20456;-79
2021/07/10 07:44:05;;;;;;;;;;;;;;;20.25;89.16;100329.50;1705958;82;21774;-79
2021/07/10 07:46:31;;;;;;;;;;;;;;;20.37;88.52;100333.14;1715157;82;20091;-79
2021/07/10 07:48:57;;;;;;;;;;;;;;;20.39;87.86;100329.72;1718239;82;20198;-79
2021/07/10 07:51:23;;;;;;;;;;;;;;;20.19;87.39;100340.56;1718659;83;20532;-80
2021/07/10 07:53:48;;;;;;;;;;;;;;;20.13;88.18;100351.33;1700725;82;20195;-79
2021/07/10 07:56:14;;;;;;;;;;;;;;;20.05;88.09;100350.53;1699967;82;21078;-79
2021/07/10 07:58:40;;;;;;;;;;;;;;;20.00;88.21;100357.06;1700155;82;20146;-79
2021/07/10 08:01:06;;;;;;;;;;;;;;;20.23;88.56;100359.75;1703798;82;20194;-80
2021/07/10 08:03:32;;;;;;;;;;;;;;;20.38;88.09;100364.27;1718323;82;20198;-78
2021/07/10 08:05:59;;;;;;;;;;;;;;;20.35;87.02;100364.70;1716644;82;20127;-79
2021/07/10 08:08:24;;;;;;;;;;;;;;;20.18;84.96;100360.89;1702879;83;21108;-79
2021/07/10 08:10:50;;;;;;;;;;;;;;;20.17;85.31;100360.61;1701380;82;20641;-78
2021/07/10 08:13:16;;;;;;;;;;;;;;;20.16;84.16;100371.02;1720636;82;20278;-78
2021/07/10 08:15:42;;;;;;;;;;;;;;;20.25;84.14;100372.41;1710264;82;20225;-77
2021/07/10 08:18:07;;;;;;;;;;;;;;;20.23;84.69;100379.86;1706482;82;20110;-77
2021/07/10 08:20:33;;;;;;;;;;;;;;;20.39;85.09;100382.02;1710363;82;21007;-78
2021/07/10 08:22:59;;;;;;;;;;;;;;;20.30;84.06;100388.67;1702938;82;20131;-78
2021/07/10 08:25:24;;;;;;;;;;;;;;;20.20;84.76;100383.78;1717636;82;20371;-78
2021/07/10 08:27:50;;;;;;;;;;;;;;;20.32;84.59;100390.61;1709440;82;20163;-78
2021/07/10 08:30:16;;;;;;;;;;;;;;;20.36;84.65;100391.84;1708937;82;20138;-78
2021/07/10 08:32:46;;;;;;;;;;;;;;;20.39;83.53;100387.39;1698350;82;21104;-79
2021/07/10 08:35:13;;;;;;;;;;;;;;;20.28;83.38;100385.92;1707851;82;20151;-79
2021/07/10 08:37:38;;;;;;;;;;;;;;;20.31;84.07;100380.94;1711332;82;20194;-78
2021/07/10 08:40:05;;;;;;;;;;;;;;;20.42;83.89;100368.17;1703283;82;20179;-78
2021/07/10 08:42:30;;;;;;;;;;;;;;;20.32;83.62;100381.22;1700534;82;20174;-79
2021/07/10 08:44:56;;;;;;;;;;;;;;;20.58;83.04;100390.16;1706240;82;21204;-78
2021/07/10 08:47:21;;;;;;;;;;;;;;;20.48;81.52;100400.53;1697607;82;20655;-79
2021/07/10 08:49:47;;;;;;;;;;;;;;;20.71;81.36;100404.88;1708000;83;20176;-79
2021/07/10 08:52:12;;;;;;;;;;;;;;;20.74;80.98;100413.84;1698595;82;20676;-79
2021/07/10 08:54:38;;;;;;;;;;;;;;;20.82;81.31;100408.73;1702438;82;20137;-80
2021/07/10 08:57:04;;;;;;;;;;;;;;;21.09;80.42;100407.17;1712151;82;22515;-80
2021/07/10 08:59:30;;;;;;;;;;;;;;;21.21;78.33;100417.51;1701402;82;21262;-79
2021/07/10 09:01:55;;;;;;;;;;;;;;;21.09;77.92;100409.86;1711961;82;20166;-79
2021/07/10 09:04:21;;;;;;;;;;;;;;;21.36;77.81;100394.84;1711138;82;20793;-80
2021/07/10 09:06:47;;;;;;;;;;;;;;;21.46;77.55;100389.27;1713366;82;20194;-80
2021/07/10 09:09:13;;;;;;;;;;;;;;;21.68;77.26;100405.80;1712749;82;21081;-79
2021/07/10 09:11:38;;;;;;;;;;;;;;;21.61;75.49;100413.13;1714067;82;20145;-80
2021/07/10 09:14:04;;;;;;;;;;;;;;;21.50;74.99;100421.91;1712139;82;20355;-80
2021/07/10 09:16:36;;;;;;;;;;;;;;;21.34;75.23;100427.30;1710802;82;20112;-80
2021/07/10 09:19:06;;;;;;;;;;;;;;;21.42;75.58;100422.98;1709394;82;20166;-81
2021/07/10 09:21:38;;;;;;;;;;;;;;;21.44;73.96;100423.60;1705215;82;21060;-81
2021/07/10 09:24:05;;;;;;;;;;;;;;;21.47;74.07;100428.53;1718205;82;20159;-81
2021/07/10 09:26:31;;;;;;;;;;;;;;;21.55;73.43;100421.23;1712115;82;20143;-84
2021/07/10 09:29:05;;;;;;;;;;;;;;;21.56;72.50;100424.23;1698620;82;20139;-82
2021/07/10 09:31:34;;;;;;;;;;;;;;;21.74;71.81;100424.26;1710137;83;20646;-81
2021/07/10 09:34:02;;;;;;;;;;;;;;;21.82;72.02;100421.80;1705754;82;21174;-83
2021/07/10 09:36:28;;;;;;;;;;;;;;;21.78;71.58;100421.44;1714755;82;20512;-81
2021/07/10 09:38:54;;;;;;;;;;;;;;;21.55;70.48;100431.98;1713903;82;20208;-82
2021/07/10 09:41:25;;;;;;;;;;;;;;;21.69;70.50;100421.42;1708019;82;20161;-83
2021/07/10 09:43:55;;;;;;;;;;;;;;;21.87;69.72;100413.87;1700023;82;20126;-81
2021/07/10 09:46:25;;;;;;;;;;;;;;;21.77;69.54;100423.81;1709832;82;20113;-82
2021/07/10 09:48:51;;;;;;;;;;;;;;;21.65;70.52;100432.31;1703797;82;20209;-81
2021/07/10 09:51:24;;;;;;;;;;;;;;;21.70;70.89;100436.48;1709387;82;20166;-81
2021/07/10 09:54:01;;;;;;;;;;;;;;;21.72;70.23;100425.02;1710251;82;20211;-81
2021/07/10 09:56:28;;;;;;;;;;;;;;;21.75;70.31;100424.56;1693905;82;20167;-81
2021/07/10 09:58:56;;;;;;;;;;;;;;;21.86;70.34;100434.56;1701753;82;21061;-80
2021/07/10 10:01:31;;;;;;;;;;;;;;;21.90;70.30;100435.47;1707925;82;20152;-81
2021/07/10 10:03:58;;;;;;;;;;;;;;;21.97;71.02;100433.50;1704818;82;20177;-81
2021/07/10 10:06:32;;;;;;;;;;;;;;;22.06;69.68;100441.56;1702628;82;20164;-79
2021/07/10 10:08:58;;;;;;;;;;;;;;;22.03;69.15;100446.05;1703728;83;20206;-80
2021/07/10 10:11:27;;;;;;;;;;;;;;;22.02;69.08;100436.36;1711472;82;40269;-82
2021/07/10 10:13:56;;;;;;;;;;;;;;;22.21;68.47;100436.63;1704367;82;20153;-78
2021/07/10 10:16:22;;;;;;;;;;;;;;;22.29;67.32;100431.99;1705470;82;20222;-80
2021/07/10 10:18:48;;;;;;;;;;;;;;;22.46;67.30;100438.41;1702311;82;20179;-83
2021/07/10 10:21:13;;;;;;;;;;;;;;;22.24;68.39;100449.63;1704457;82;20178;-84
2021/07/10 10:23:39;;;;;;;;;;;;;;;22.29;68.91;100442.75;1701034;82;21078;-80
2021/07/10 10:26:04;;;;;;;;;;;;;;;22.58;68.30;100447.35;1706185;82;20845;-81
2021/07/10 10:28:33;;;;;;;;;;;;;;;22.67;67.87;100455.94;1707071;82;20190;-79
2021/07/10 10:30:59;;;;;;;;;;;;;;;22.71;66.88;100440.14;1710263;83;20167;-82
2021/07/10 10:33:27;;;;;;;;;;;;;;;22.71;65.13;100450.91;1705513;83;20146;-82
2021/07/10 10:35:54;;;;;;;;;;;;;;;22.59;65.08;100449.00;1708003;82;20615;-82
2021/07/10 10:38:22;;;;;;;;;;;;;;;22.63;63.76;100448.02;1708016;82;20161;-83
2021/07/10 10:40:48;;;;;;;;;;;;;;;22.86;63.59;100447.27;1701071;82;20185;-82
2021/07/10 10:43:16;;;;;;;;;;;;;;;22.90;64.23;100447.11;1704608;82;20804;-81
2021/07/10 10:45:42;;;;;;;;;;;;;;;22.87;63.15;100457.00;1704878;82;20357;-81
2021/07/10 10:48:08;;;;;;;;;;;;;;;22.86;63.60;100459.38;1697290;82;20556;-79
2021/07/10 10:50:36;;;;;;;;;;;;;;;22.73;63.51;100459.56;1700769;82;20164;-80
2021/07/10 10:53:03;;;;;;;;;;;;;;;22.67;63.30;100452.41;1697260;83;20222;-78
2021/07/10 10:55:32;;;;;;;;;;;;;;;22.82;63.78;100465.45;1697011;82;20199;-78
2021/07/10 10:58:17;;;;;;;;;;;;;;;22.57;63.90;100479.88;1698357;82;20477;-79
2021/07/10 11:00:44;;;;;;;;;;;;;;;22.55;64.75;100474.72;1700788;82;21549;-80
2021/07/10 11:03:11;;;;;;;;;;;;;;;22.40;65.98;100483.72;1699365;82;20193;-79
2021/07/10 11:05:43;;;;;;;;;;;;;;;22.41;66.88;100478.64;1698488;82;20202;-79
2021/07/10 11:08:22;;;;;;;;;;;;;;;22.34;66.93;100490.00;1712031;83;20163;-78
2021/07/10 11:10:57;;;;;;;;;;;;;;;22.18;67.24;100501.64;1704745;82;20502;-81
2021/07/10 11:13:29;;;;;;;;;;;;;;;22.10;68.07;100485.80;1701156;82;21599;-81
2021/07/10 11:16:17;;;;;;;;;;;;;;;22.13;68.07;100479.16;1702074;82;20781;-81
2021/07/10 11:19:02;;;;;;;;;;;;;;;22.30;67.68;100492.33;1696309;82;20446;-79
2021/07/10 11:21:38;;;;;;;;;;;;;;;22.11;67.30;100500.91;1702868;83;20223;-80
2021/07/10 11:24:21;;;;;;;;;;;;;;;21.86;68.38;100499.09;1704374;82;20147;-78
2021/07/10 11:27:00;;;;;;;;;;;;;;;21.87;68.04;100508.78;1708356;83;21137;-79
2021/07/10 11:29:28;;;;;;;;;;;;;;;21.93;68.40;100504.93;1713000;82;20978;-80
2021/07/10 11:32:16;;;;;;;;;;;;;;;21.99;68.67;100512.11;1714508;82;20247;-79
2021/07/10 11:34:48;;;;;;;;;;;;;;;21.92;68.08;100511.34;1706755;83;20777;-81
2021/07/10 11:37:17;;;;;;;;;;;;;;;21.80;68.60;100526.87;1698986;82;20456;-80
2021/07/10 11:39:45;;;;;;;;;;;;;;;21.74;68.61;100518.34;1692435;82;21271;-78
2021/07/10 11:42:22;;;;;;;;;;;;;;;21.64;68.55;100517.51;1702606;82;20580;-80
2021/07/10 11:44:54;;;;;;;;;;;;;;;21.57;68.29;100511.36;1699052;83;20170;-81
2021/07/10 11:47:32;;;;;;;;;;;;;;;21.57;67.89;100514.58;1700779;82;20176;-80
2021/07/10 11:49:58;;;;;;;;;;;;;;;21.54;68.60;100519.86;1699091;82;20211;-79
2021/07/10 11:52:23;;;;;;;;;;;;;;;21.56;68.70;100515.08;1704853;82;21110;-78
2021/07/10 11:54:52;;;;;;;;;;;;;;;21.54;68.74;100515.02;1702297;82;20175;-81
2021/07/10 11:57:18;;;;;;;;;;;;;;;21.46;69.12;100520.92;1707631;82;20149;-79
2021/07/10 11:59:44;;;;;;;;;;;;;;;21.56;68.89;100527.70;1706047;82;20650;-80
2021/07/10 12:02:17;;;;;;;;;;;;;;;21.47;69.65;100536.02;1708869;82;20154;-78
2021/07/10 12:05:06;;;;;;;;;;;;;;;21.61;69.00;100517.11;1702552;82;21109;-78
2021/07/10 12:07:36;;;;;;;;;;;;;;;21.58;68.81;100521.58;1711036;82;20170;-78
2021/07/10 12:10:04;;;;;;;;;;;;;;;21.45;69.69;100525.98;1705677;82;20187;-78
2021/07/10 12:12:30;;;;;;;;;;;;;;;21.56;68.78;100533.08;1695044;83;20119;-79
2021/07/10 12:14:59;;;;;;;;;;;;;;;21.33;68.33;100530.42;1697763;82;20231;-78
2021/07/10 12:17:25;;;;;;;;;;;;;;;21.41;68.49;100526.14;1703182;82;21228;-81
2021/07/10 12:19:51;;;;;;;;;;;;;;;21.43;67.94;100532.11;1705094;82;20191;-82
2021/07/10 12:22:17;;;;;;;;;;;;;;;21.55;68.26;100520.67;1698595;82;20221;-85
2021/07/10 12:24:43;;;;;;;;;;;;;;;21.75;67.92;100523.19;1703214;82;20183;-79
2021/07/10 12:27:14;;;;;;;;;;;;;;;21.91;67.57;100531.20;1669513;82;20204;-77
2021/07/10 12:29:54;;;;;;;;;;;;;;;21.81;67.00;100519.11;1706697;82;21111;-78
2021/07/10 12:32:20;;;;;;;;;;;;;;;21.96;66.92;100529.50;1705421;82;20180;-78